createdAt,value
2022-09-28T00:03:29.692Z,96956.63
2022-09-28T00:13:36.275Z,96953.42
2022-09-28T00:23:58.280Z,96947.67
2022-09-28T00:34:06.010Z,96940.98
2022-09-28T00:44:37.957Z,96930.80
2022-09-28T00:54:44.770Z,96925.81
2022-09-28T01:04:53.399Z,96923.20
2022-09-28T01:15:02.178Z,96919.20
2022-09-28T01:25:12.513Z,96924.45
2022-09-28T01:35:21.251Z,96929.95
2022-09-28T01:45:29.521Z,96931.75
2022-09-28T01:55:40.311Z,96928.78
2022-09-28T02:05:52.622Z,96922.73
2022-09-28T02:15:57.771Z,96927.71
2022-09-28T02:26:08.376Z,96930.85
2022-09-28T02:36:15.949Z,96934.81
2022-09-28T02:46:23.079Z,96939.47
2022-09-28T02:56:37.949Z,96937.92
2022-09-28T03:06:54.862Z,96938.98
2022-09-28T03:17:01.822Z,96936.21
2022-09-28T03:27:10.106Z,96936.06
2022-09-28T03:37:17.717Z,96945.75
2022-09-28T03:47:24.888Z,96945.39
2022-09-28T03:57:32.731Z,96951.41
2022-09-28T04:07:39.034Z,96951.86
2022-09-28T04:17:46.412Z,96950.09
2022-09-28T04:28:11.218Z,96950.19
2022-09-28T04:38:35.623Z,96946.15
2022-09-28T04:48:45.870Z,96943.95
2022-09-28T04:58:53.115Z,96950.66
2022-09-28T05:08:59.415Z,96949.24
2022-09-28T05:19:07.483Z,96950.70
2022-09-28T05:29:14.813Z,96953.60
2022-09-28T05:39:21.728Z,96945.08
2022-09-28T05:49:28.344Z,96951.12
2022-09-28T05:59:36.616Z,96958.17
2022-09-28T06:09:43.729Z,96961.28
2022-09-28T06:19:52.546Z,96959.11
2022-09-28T06:30:01.102Z,96952.48
2022-09-28T06:40:09.962Z,96951.39
2022-09-28T06:50:17.460Z,96962.81
2022-09-28T07:00:24.509Z,96957.16
2022-09-28T07:10:33.392Z,96955.77
2022-09-28T07:20:51.156Z,96969.63
2022-09-28T07:31:00.346Z,96975.04
2022-09-28T07:41:14.745Z,96968.30
2022-09-28T07:51:22.370Z,96952.38
2022-09-28T08:01:30.797Z,96936.14
2022-09-28T08:11:39.422Z,96933.58
2022-09-28T08:21:46.782Z,96934.81
2022-09-28T08:31:56.352Z,96953.42
2022-09-28T08:42:08.943Z,96957.77
2022-09-28T08:52:18.947Z,96948.55
2022-09-28T09:02:33.928Z,96941.25
2022-09-28T09:12:45.857Z,96937.09
2022-09-28T09:22:54.188Z,96935.80
2022-09-28T09:33:09.126Z,96935.31
2022-09-28T09:43:32.955Z,96925.59
2022-09-28T09:53:41.816Z,96926.86
2022-09-28T10:03:51.823Z,96936.89
2022-09-28T10:13:59.532Z,96943.38
2022-09-28T10:24:08.875Z,96934.27
2022-09-28T10:34:18.973Z,96920.67
2022-09-28T10:44:27.428Z,96913.98
2022-09-28T10:54:35.410Z,96902.30
2022-09-28T11:04:45.008Z,96887.12
2022-09-28T11:14:57.143Z,96897.13
2022-09-28T11:25:25.515Z,96899.50
2022-09-28T11:35:38.761Z,96905.89
2022-09-28T11:45:48.752Z,96888.79
2022-09-28T11:55:59.534Z,96865.28
2022-09-28T12:06:07.139Z,96852.37
2022-09-28T12:26:53.283Z,96837.66
2022-09-28T12:37:07.781Z,96838.34
2022-09-28T12:47:33.558Z,96837.82
2022-09-28T12:57:41.511Z,96827.85
2022-09-28T13:07:50.020Z,96813.31
2022-09-28T13:17:57.254Z,96815.39
2022-09-28T13:28:02.789Z,96816.61
2022-09-28T13:38:44.860Z,96813.36
2022-09-28T13:49:00.793Z,96806.16
2022-09-28T13:59:10.460Z,96804.22
2022-09-28T14:09:45.803Z,96793.33
2022-09-28T14:19:51.029Z,96779.48
2022-09-28T14:30:08.888Z,96770.52
2022-09-28T14:40:35.816Z,96758.08
2022-09-28T14:50:43.314Z,96756.89
2022-09-28T15:00:51.008Z,96755.58
2022-09-28T15:11:02.192Z,96771.81
2022-09-28T15:21:10.082Z,96782.35
2022-09-28T15:31:17.824Z,96787.57
2022-09-28T15:41:26.012Z,96797.23
2022-09-28T15:51:46.256Z,96813.61
2022-09-28T16:02:06.357Z,96809.56
2022-09-28T16:12:15.544Z,96822.52
2022-09-28T16:22:28.701Z,96833.10
2022-09-28T16:32:38.601Z,96833.85
2022-09-28T16:42:49.094Z,96830.79
2022-09-28T16:53:15.920Z,96839.66
2022-09-28T17:03:23.799Z,96861.11
2022-09-28T17:13:33.828Z,96869.13
2022-09-28T17:23:41.530Z,96857.89
2022-09-28T17:33:48.998Z,96833.65
2022-09-28T17:43:56.360Z,96885.40
2022-09-28T17:54:04.854Z,96890.43
2022-09-28T18:04:27.915Z,96895.27
2022-09-28T18:14:40.243Z,96897.90
2022-09-28T18:24:47.405Z,96906.11
2022-09-28T18:34:54.497Z,96910.98
2022-09-28T18:45:01.932Z,96906.15
2022-09-28T18:55:08.064Z,96917.91
2022-09-28T19:05:15.399Z,96927.01
2022-09-28T19:15:20.010Z,96930.25
2022-09-28T19:25:27.046Z,96933.09
2022-09-28T19:35:34.605Z,96918.05
2022-09-28T19:45:42.895Z,96920.73
2022-09-28T19:55:52.874Z,96935.65
2022-09-28T20:06:03.450Z,96951.95
2022-09-28T20:16:08.435Z,96972.10
2022-09-28T20:26:16.816Z,96983.91
2022-09-28T20:36:25.195Z,96981.17
2022-09-28T20:46:33.263Z,96975.38
2022-09-28T20:56:40.689Z,96989.75
2022-09-28T21:06:47.932Z,96988.69
2022-09-28T21:16:55.680Z,97012.71
2022-09-28T21:27:02.621Z,97006.38
2022-09-28T21:37:10.352Z,97020.09
2022-09-28T21:47:17.343Z,97045.20
2022-09-28T21:57:24.590Z,97052.88
2022-09-28T22:07:31.665Z,97066.63
2022-09-28T22:17:38.332Z,97059.98
2022-09-28T22:27:46.288Z,97062.67
2022-09-28T22:37:53.272Z,97090.60
2022-09-28T22:48:00.199Z,97093.60
2022-09-28T22:58:07.420Z,97100.52
2022-09-28T23:08:14.379Z,97087.86
2022-09-28T23:18:21.331Z,97088.38
2022-09-28T23:28:28.854Z,97097.98
2022-09-28T23:38:35.949Z,97103.89
2022-09-28T23:48:42.186Z,97106.64
2022-09-28T23:58:49.270Z,97132.05
